Time;durP1;ratioP1;P1;durP2;ratioP2;P2;SDS_P1;SDS_P2;PMS_P1;PMS_P2;Temp;Humidity;BMP_temperature;BMP_pressure;BME280_temperature;BME280_humidity;BME280_pressure;Samples;Min_cycle;Max_cycle;Signal;HPM_P1;HPM_P2
2022/05/19 00:01:09;;;;;;;6.55;4.20;;;;;;;19.02;100.00;101025.72;6262182;28;20025;-89
2022/05/19 00:04:11;;;;;;;4.40;3.50;;;;;;;18.98;100.00;101022.63;6246462;28;20426;-89
2022/05/19 00:07:14;;;;;;;4.65;4.25;;;;;;;18.98;100.00;101016.53;6266279;28;20502;-89
2022/05/19 00:10:16;;;;;;;5.03;3.95;;;;;;;18.96;100.00;101016.72;6256689;28;20061;-89
2022/05/19 00:13:18;;;;;;;6.13;3.90;;;;;;;18.97;100.00;101017.53;6262239;28;20052;-89
2022/05/19 00:16:20;;;;;;;5.45;4.10;;;;;;;18.95;100.00;101004.56;6262086;28;20045;-90
2022/05/19 00:19:22;;;;;;;6.13;4.40;;;;;;;18.91;100.00;101004.09;6261715;28;20045;-89
2022/05/19 00:22:25;;;;;;;5.25;4.40;;;;;;;18.96;100.00;101008.03;6256210;28;20038;-89
2022/05/19 00:25:27;;;;;;;6.28;4.70;;;;;;;18.93;100.00;101001.28;6240760;28;20052;-89
2022/05/19 00:28:29;;;;;;;5.47;4.22;;;;;;;18.91;100.00;101008.53;6250577;28;20072;-89
2022/05/19 00:31:32;;;;;;;4.38;3.90;;;;;;;18.87;100.00;100999.34;6254806;28;20041;-89
2022/05/19 00:34:34;;;;;;;5.95;4.45;;;;;;;18.84;100.00;100990.00;6258413;28;20044;-89
2022/05/19 00:37:36;;;;;;;7.55;4.68;;;;;;;18.88;100.00;100993.09;6263716;28;20053;-89
2022/05/19 00:40:38;;;;;;;6.38;4.60;;;;;;;18.84;100.00;100994.41;6257002;28;20042;-89
2022/05/19 00:43:43;;;;;;;4.57;4.18;;;;;;;18.81;100.00;100992.13;6254114;28;20037;-89
2022/05/19 00:46:53;;;;;;;4.30;3.90;;;;;;;18.80;100.00;100987.84;6260545;28;20040;-89
2022/05/19 00:49:55;;;;;;;7.60;4.53;;;;;;;18.76;100.00;100991.78;6258598;28;20384;-89
2022/05/19 00:53:04;;;;;;;8.30;4.70;;;;;;;18.73;100.00;100991.13;6249786;28;20111;-89
2022/05/19 00:56:35;;;;;;;5.10;4.25;;;;;;;18.73;100.00;100992.88;6237884;28;20037;-89
2022/05/19 00:59:47;;;;;;;6.95;3.75;;;;;;;18.69;100.00;100995.03;6252257;28;20128;-89
2022/05/19 01:02:53;;;;;;;4.95;4.00;;;;;;;18.67;100.00;100986.50;6239305;28;20052;-89
2022/05/19 01:06:02;;;;;;;9.90;4.35;;;;;;;18.65;100.00;100985.84;6246976;28;20402;-89
2022/05/19 01:09:14;;;;;;;5.13;4.50;;;;;;;18.65;100.00;100982.41;6251572;28;20072;-89
2022/05/19 01:12:16;;;;;;;5.43;4.90;;;;;;;18.60;100.00;100977.66;6245934;28;20511;-89
2022/05/19 01:15:18;;;;;;;5.25;4.15;;;;;;;18.57;100.00;100985.84;6253327;28;20045;-89
2022/05/19 01:18:20;;;;;;;4.88;4.07;;;;;;;18.57;100.00;100987.66;6241843;28;20527;-89
2022/05/19 01:21:27;;;;;;;5.60;4.30;;;;;;;18.48;100.00;100985.03;6241403;28;20056;-90
2022/05/19 01:24:46;;;;;;;5.88;4.03;;;;;;;18.41;100.00;100991.88;6255028;28;20044;-89
2022/05/19 01:27:49;;;;;;;5.80;4.00;;;;;;;18.35;100.00;100994.31;6259300;28;20112;-89
2022/05/19 01:30:51;;;;;;;5.70;4.43;;;;;;;18.29;100.00;100996.59;6237432;28;20110;-89
2022/05/19 01:33:53;;;;;;;5.35;4.15;;;;;;;18.29;100.00;100993.16;6262099;28;20040;-89
2022/05/19 01:36:55;;;;;;;4.00;3.70;;;;;;;18.28;100.00;100989.75;6242883;28;20045;-90
2022/05/19 01:40:31;;;;;;;7.18;4.55;;;;;;;18.26;100.00;100991.69;6254787;28;20061;-90
2022/05/19 01:43:55;;;;;;;5.50;4.32;;;;;;;18.19;100.00;100984.63;6260868;28;20059;-90
2022/05/19 01:47:23;;;;;;;7.43;4.10;;;;;;;18.16;100.00;100987.53;6222475;28;20045;-89
2022/05/19 01:50:54;;;;;;;7.18;4.35;;;;;;;18.14;100.00;100986.91;6235514;28;20061;-89
2022/05/19 01:54:23;;;;;;;7.25;4.30;;;;;;;18.12;100.00;100984.44;6250028;28;20041;-89
2022/05/19 01:57:33;;;;;;;4.72;4.15;;;;;;;18.11;100.00;100980.19;6216194;28;20685;-90
2022/05/19 02:00:35;;;;;;;4.53;4.10;;;;;;;18.09;100.00;100974.28;6259817;28;20045;-90
2022/05/19 02:03:55;;;;;;;5.53;4.07;;;;;;;18.06;100.00;100979.81;6231474;28;20048;-89
2022/05/19 02:07:04;;;;;;;7.13;4.72;;;;;;;18.04;100.00;100973.94;6268064;28;20464;-89
2022/05/19 02:10:14;;;;;;;5.90;4.38;;;;;;;18.04;100.00;100974.75;6260016;28;20337;-90
2022/05/19 02:13:17;;;;;;;4.65;4.18;;;;;;;18.08;100.00;100973.44;6261136;28;20048;-89
2022/05/19 02:16:19;;;;;;;5.55;4.30;;;;;;;18.11;100.00;100971.50;6243797;28;20065;-89
2022/05/19 02:19:26;;;;;;;7.10;4.75;;;;;;;18.11;100.00;100967.09;6244998;28;20045;-89
2022/05/19 02:22:33;;;;;;;6.88;4.65;;;;;;;18.09;100.00;100969.03;6252803;28;20120;-89
2022/05/19 02:25:41;;;;;;;5.15;4.22;;;;;;;18.02;100.00;100968.84;6232584;28;20050;-89
2022/05/19 02:28:49;;;;;;;7.00;5.00;;;;;;;17.97;100.00;100968.50;6239846;28;20045;-89
2022/05/19 02:31:51;;;;;;;6.75;4.63;;;;;;;17.93;100.00;100966.34;6257666;28;20210;-89
2022/05/19 02:34:53;;;;;;;6.78;4.82;;;;;;;17.90;100.00;100961.44;6256686;28;20486;-89
2022/05/19 02:37:56;;;;;;;4.65;4.25;;;;;;;17.91;100.00;100965.69;6252243;28;20140;-89
2022/05/19 02:40:58;;;;;;;5.13;4.60;;;;;;;17.90;100.00;100959.63;6259355;28;20041;-89
2022/05/19 02:44:00;;;;;;;5.18;4.72;;;;;;;17.89;100.00;100954.53;6256924;28;20069;-89
2022/05/19 02:47:02;;;;;;;7.13;4.65;;;;;;;17.85;100.00;100954.88;6256597;28;20621;-89
2022/05/19 02:50:05;;;;;;;5.03;4.45;;;;;;;17.84;100.00;100957.66;6258815;28;20553;-89
2022/05/19 02:53:07;;;;;;;5.95;5.32;;;;;;;17.82;100.00;100957.81;6256739;28;20058;-89
2022/05/19 02:56:09;;;;;;;6.38;4.60;;;;;;;17.81;100.00;100961.44;6238763;28;20036;-89
2022/05/19 02:59:11;;;;;;;5.28;4.35;;;;;;;17.91;100.00;100957.84;6252635;28;20048;-89
2022/05/19 03:02:13;;;;;;;6.93;5.60;;;;;;;17.85;100.00;100954.88;6240827;28;20482;-89
2022/05/19 03:05:20;;;;;;;6.07;4.57;;;;;;;17.83;100.00;100956.00;6245885;28;20053;-89
2022/05/19 03:08:22;;;;;;;7.53;4.63;;;;;;;17.82;100.00;100959.63;6257014;28;20044;-89
2022/05/19 03:11:24;;;;;;;5.57;4.93;;;;;;;17.81;100.00;100960.56;6251007;28;20355;-89
2022/05/19 03:14:26;;;;;;;5.93;4.70;;;;;;;17.77;100.00;100957.44;6252833;28;20041;-89
2022/05/19 03:17:28;;;;;;;6.45;4.60;;;;;;;17.71;100.00;100950.19;6262790;28;20064;-89
2022/05/19 03:20:31;;;;;;;9.02;4.90;;;;;;;17.76;100.00;100955.81;6246455;28;20068;-89
2022/05/19 03:23:33;;;;;;;7.85;4.82;;;;;;;17.75;100.00;100953.34;6245796;28;20605;-91
2022/05/19 03:26:36;;;;;;;5.15;4.65;;;;;;;17.70;100.00;100956.41;6244647;28;20053;-91
2022/05/19 03:29:37;;;;;;;5.63;4.93;;;;;;;17.66;100.00;100960.31;6244161;28;20627;-91
2022/05/19 03:32:39;;;;;;;8.00;5.22;;;;;;;17.59;100.00;100957.53;6257491;28;20049;-91
2022/05/19 03:35:42;;;;;;;6.05;5.07;;;;;;;17.61;100.00;100957.34;6265062;28;20040;-91
2022/05/19 03:38:44;;;;;;;5.60;4.93;;;;;;;17.59;100.00;100949.69;6262124;28;20053;-91
2022/05/19 03:41:46;;;;;;;5.60;5.00;;;;;;;17.68;100.00;100953.13;6254488;28;20075;-91
2022/05/19 03:44:49;;;;;;;8.10;5.63;;;;;;;17.70;100.00;100950.38;6240247;28;20080;-91
2022/05/19 03:47:51;;;;;;;6.22;5.00;;;;;;;17.70;100.00;100950.38;6258946;28;20038;-91
2022/05/19 03:50:53;;;;;;;6.88;5.15;;;;;;;17.71;100.00;100954.63;6242066;28;20041;-91
2022/05/19 03:53:56;;;;;;;6.93;5.30;;;;;;;17.68;100.00;100958.38;6262912;28;20045;-91
2022/05/19 03:56:57;;;;;;;7.63;5.60;;;;;;;17.68;100.00;100966.22;6264487;28;20129;-91
2022/05/19 04:00:00;;;;;;;7.47;5.13;;;;;;;17.68;100.00;100966.22;6239290;28;20079;-91
2022/05/19 04:03:01;;;;;;;6.07;5.40;;;;;;;17.70;100.00;100968.69;6252892;28;20068;-91
2022/05/19 04:06:03;;;;;;;6.25;5.05;;;;;;;17.71;100.00;100960.66;6249643;28;20247;-91
2022/05/19 04:09:06;;;;;;;5.93;5.20;;;;;;;17.73;100.00;100955.28;6232068;28;20469;-91
2022/05/19 04:12:08;;;;;;;5.68;4.90;;;;;;;17.76;100.00;100949.72;6249446;28;20110;-91
2022/05/19 04:15:11;;;;;;;8.48;4.70;;;;;;;17.80;100.00;100949.28;6262559;28;20047;-91
2022/05/19 04:18:14;;;;;;;5.38;4.88;;;;;;;17.89;100.00;100955.41;6255969;28;20053;-91
2022/05/19 04:21:16;;;;;;;5.45;4.95;;;;;;;17.95;100.00;100953.94;6259622;28;20061;-91
2022/05/19 04:24:18;;;;;;;7.80;5.53;;;;;;;18.03;100.00;100961.81;6261487;28;20037;-91
2022/05/19 04:27:20;;;;;;;6.95;5.18;;;;;;;18.15;100.00;100954.47;6237280;28;20050;-91
2022/05/19 04:30:22;;;;;;;6.47;5.13;;;;;;;18.21;100.00;100962.53;6251592;28;20059;-91
2022/05/19 04:33:28;;;;;;;5.82;5.18;;;;;;;18.31;100.00;100959.75;6250409;28;20044;-91
2022/05/19 04:36:30;;;;;;;5.75;4.93;;;;;;;18.38;100.00;100959.91;6269695;28;20033;-92
2022/05/19 04:39:32;;;;;;;8.68;5.10;;;;;;;18.44;100.00;100965.34;6264120;28;20032;-92
2022/05/19 04:42:34;;;;;;;8.00;5.00;;;;;;;18.47;100.00;100965.00;6256429;28;20497;-91
2022/05/19 04:45:36;;;;;;;6.00;5.03;;;;;;;18.54;100.00;100967.81;6273877;28;20055;-91
2022/05/19 04:48:38;;;;;;;5.07;4.35;;;;;;;18.62;100.00;100969.63;6264232;28;20152;-91
2022/05/19 04:51:40;;;;;;;6.78;4.57;;;;;;;18.67;100.00;100960.28;6233515;28;20048;-92
2022/05/19 04:54:42;;;;;;;5.18;4.70;;;;;;;18.72;100.00;100963.22;6248973;28;20049;-91
2022/05/19 04:57:46;;;;;;;5.57;4.65;;;;;;;18.79;100.00;100970.50;6265948;28;20052;-91
2022/05/19 05:00:50;;;;;;;6.75;4.90;;;;;;;18.85;100.00;100968.00;6255502;28;20048;-91
2022/05/19 05:03:52;;;;;;;6.05;5.47;;;;;;;18.92;100.00;100968.19;6258578;28;20066;-91
2022/05/19 05:06:54;;;;;;;5.65;4.85;;;;;;;19.01;100.00;100972.44;6257994;28;20036;-92
2022/05/19 05:09:56;;;;;;;5.85;5.22;;;;;;;19.08;100.00;100980.44;6247055;28;20087;-92
2022/05/19 05:13:07;;;;;;;7.85;5.10;;;;;;;19.14;100.00;100982.44;6261546;28;20042;-92
2022/05/19 05:16:09;;;;;;;7.82;5.22;;;;;;;19.18;100.00;100977.66;6240320;28;20049;-92
2022/05/19 05:19:11;;;;;;;6.25;4.95;;;;;;;19.21;100.00;100980.78;6266487;28;20045;-92
2022/05/19 05:22:13;;;;;;;5.25;4.78;;;;;;;19.26;100.00;100981.09;6265028;28;20190;-92
2022/05/19 05:25:15;;;;;;;5.63;5.03;;;;;;;19.32;100.00;100984.84;6263781;28;20029;-92
2022/05/19 05:28:18;;;;;;;5.57;4.43;;;;;;;19.42;100.00;100985.50;6259620;28;20051;-92
2022/05/19 05:31:21;;;;;;;5.75;4.88;;;;;;;19.54;100.00;100994.66;6240481;28;20131;-92
2022/05/19 05:34:24;;;;;;;7.22;4.90;;;;;;;19.64;100.00;100981.31;6269647;28;20553;-91
2022/05/19 05:37:26;;;;;;;6.80;4.93;;;;;;;19.72;100.00;100983.13;6268093;28;20623;-92
2022/05/19 05:40:28;;;;;;;5.35;4.85;;;;;;;19.82;100.00;100990.81;6261466;28;20414;-91
2022/05/19 05:43:30;;;;;;;7.65;4.85;;;;;;;19.92;100.00;100991.44;6261297;28;20040;-92
2022/05/19 05:46:33;;;;;;;6.03;4.72;;;;;;;20.01;100.00;100996.47;6260903;28;20402;-92
2022/05/19 05:49:34;;;;;;;7.35;5.05;;;;;;;20.10;100.00;100993.81;6249015;28;20033;-92
2022/05/19 05:52:36;;;;;;;6.57;4.82;;;;;;;20.18;100.00;101002.47;6262903;28;20033;-92
2022/05/19 05:55:44;;;;;;;7.70;5.28;;;;;;;20.27;100.00;101010.31;6244284;28;20525;-92
2022/05/19 05:58:46;;;;;;;5.68;4.88;;;;;;;20.33;100.00;101010.44;6267234;28;20048;-92
2022/05/19 06:01:53;;;;;;;5.32;4.82;;;;;;;20.35;100.00;101008.47;6227000;28;20041;-92
2022/05/19 06:04:55;;;;;;;6.22;4.95;;;;;;;20.42;100.00;101017.31;6267377;28;20465;-92
2022/05/19 06:07:57;;;;;;;5.70;4.90;;;;;;;20.44;100.00;101015.28;6262896;28;20045;-92
2022/05/19 06:11:00;;;;;;;5.95;4.80;;;;;;;20.48;100.00;101020.22;6263253;28;20418;-92
2022/05/19 06:14:01;;;;;;;5.38;4.88;;;;;;;20.54;100.00;101020.34;6246539;28;20410;-92
2022/05/19 06:17:03;;;;;;;6.03;4.90;;;;;;;20.63;100.00;101016.69;6232197;28;20044;-92
2022/05/19 06:20:07;;;;;;;6.90;4.85;;;;;;;20.74;100.00;101020.72;6255687;28;20041;-92
2022/05/19 06:23:11;;;;;;;7.20;4.85;;;;;;;20.88;100.00;101023.59;6240547;28;20033;-92
2022/05/19 06:26:17;;;;;;;6.22;4.20;;;;;;;20.99;98.27;101021.38;6265538;28;20037;-92
2022/05/19 06:29:19;;;;;;;6.03;4.40;;;;;;;21.13;97.92;101016.31;6231166;28;20449;-92
2022/05/19 06:32:21;;;;;;;6.90;4.18;;;;;;;21.26;96.19;101008.59;6258848;28;20056;-92
2022/05/19 06:35:27;;;;;;;6.32;4.22;;;;;;;21.37;94.67;101013.44;6244553;28;20033;-93
2022/05/19 06:38:31;;;;;;;5.32;4.20;;;;;;;21.50;92.57;101015.50;6262551;28;20087;-92
2022/05/19 06:44:54;;;;;;;11.30;4.88;;;;;;;21.91;87.56;101012.38;6256607;28;20395;-91
2022/05/19 06:47:57;;;;;;;8.43;4.50;;;;;;;22.20;85.32;101013.38;6225347;28;20049;-92
2022/05/19 06:50:59;;;;;;;7.30;4.93;;;;;;;22.43;84.28;101008.72;6240864;28;20040;-92
2022/05/19 06:54:22;;;;;;;8.27;4.00;;;;;;;22.64;83.11;101004.50;6247403;28;20122;-93
2022/05/19 06:57:25;;;;;;;5.68;3.97;;;;;;;22.79;84.65;100989.41;6241628;28;20064;-92
2022/05/19 07:00:29;;;;;;;5.90;3.80;;;;;;;22.97;82.76;101002.13;6243850;28;20490;-92
2022/05/19 07:03:30;;;;;;;5.40;3.85;;;;;;;23.16;79.60;101003.31;6251684;28;20526;-92
2022/05/19 07:06:33;;;;;;;4.30;3.90;;;;;;;23.33;78.83;101003.81;6247706;28;20143;-92
2022/05/19 07:09:35;;;;;;;5.72;4.25;;;;;;;23.49;77.37;101000.88;6236456;28;20410;-91
2022/05/19 07:12:38;;;;;;;3.80;3.50;;;;;;;23.57;78.14;100997.25;6239740;28;20413;-92
2022/05/19 07:15:40;;;;;;;5.03;4.15;;;;;;;23.61;76.99;100996.69;6238253;28;20041;-92
2022/05/19 07:18:42;;;;;;;4.10;3.70;;;;;;;23.69;77.09;100995.69;6233558;28;20548;-92
2022/05/19 07:21:45;;;;;;;5.38;4.10;;;;;;;23.73;74.07;100985.59;6250014;28;20119;-92
2022/05/19 07:24:48;;;;;;;4.10;3.70;;;;;;;23.77;77.84;100994.75;6238322;28;20053;-92
2022/05/19 07:27:50;;;;;;;9.43;4.03;;;;;;;23.78;78.02;100983.19;6236142;28;20527;-92
2022/05/19 07:30:52;;;;;;;4.00;3.55;;;;;;;23.87;75.73;100979.34;6246638;28;20541;-92
2022/05/19 07:33:54;;;;;;;4.18;3.75;;;;;;;23.90;77.52;100975.47;6237405;28;20674;-92
2022/05/19 07:36:57;;;;;;;5.32;4.28;;;;;;;23.89;75.48;100972.03;6251247;28;20052;-92
2022/05/19 07:39:59;;;;;;;7.13;3.88;;;;;;;23.90;74.30;100967.53;6245577;28;20045;-92
2022/05/19 07:46:26;;;;;;;6.45;3.80;;;;;;;23.86;76.95;100956.56;6248053;28;20398;-92
2022/05/19 07:49:28;;;;;;;4.07;3.67;;;;;;;23.94;75.59;100961.66;6219761;28;20053;-92
2022/05/19 07:52:30;;;;;;;5.28;3.65;;;;;;;24.00;74.49;100954.75;6244043;28;20048;-92
2022/05/19 07:55:32;;;;;;;3.75;3.33;;;;;;;24.11;77.15;100951.53;6248095;28;20127;-92
2022/05/19 07:58:34;;;;;;;4.93;3.95;;;;;;;24.25;74.31;100953.22;6244244;28;20052;-91
2022/05/19 08:01:39;;;;;;;4.20;3.50;;;;;;;24.33;76.37;100946.09;6248553;28;20045;-93
2022/05/19 08:04:41;;;;;;;5.05;3.40;;;;;;;24.34;70.82;100951.16;6248806;28;20291;-92
2022/05/19 08:07:43;;;;;;;7.95;3.55;;;;;;;24.36;70.24;100953.63;6243204;28;20183;-92
2022/05/19 08:10:53;;;;;;;4.28;3.78;;;;;;;24.23;71.30;100949.94;6242453;28;20045;-92
2022/05/19 08:17:17;;;;;;;4.70;3.50;;;;;;;23.88;74.80;100953.72;6250172;28;20056;-90
2022/05/19 08:20:18;;;;;;;9.68;4.35;;;;;;;23.72;74.87;100953.00;6249931;28;20048;-91
2022/05/19 08:23:24;;;;;;;6.63;4.00;;;;;;;23.61;74.10;100948.31;6250424;28;20075;-91
2022/05/19 08:26:25;;;;;;;5.28;4.18;;;;;;;23.48;77.01;100951.69;6238242;28;20041;-90
2022/05/19 08:29:27;;;;;;;5.70;3.75;;;;;;;23.44;79.72;100947.81;6233120;28;20812;-90
2022/05/19 08:32:29;;;;;;;4.65;3.92;;;;;;;23.46;79.42;100952.91;6253221;28;20044;-90
2022/05/19 08:35:31;;;;;;;4.85;3.45;;;;;;;23.57;79.45;100954.97;6243889;28;20041;-90
2022/05/19 08:38:33;;;;;;;4.72;3.85;;;;;;;23.68;74.79;100951.78;6248577;28;20037;-90
2022/05/19 08:41:42;;;;;;;6.53;3.53;;;;;;;23.82;73.70;100950.03;6238933;28;20068;-90
2022/05/19 08:44:51;;;;;;;4.88;4.07;;;;;;;23.90;73.96;100946.38;6252666;28;20049;-90
2022/05/19 08:48:08;;;;;;;4.95;3.78;;;;;;;24.07;76.56;100945.84;6249975;28;20056;-90
2022/05/19 08:51:12;;;;;;;8.60;4.15;;;;;;;24.35;73.28;100936.09;6242467;28;20041;-90
2022/05/19 08:54:20;;;;;;;3.97;3.67;;;;;;;24.64;71.13;100937.59;6251903;28;20050;-90
2022/05/19 08:57:30;;;;;;;6.13;3.33;;;;;;;24.99;71.04;100942.66;6242007;28;20049;-90
2022/05/19 09:00:53;;;;;;;5.97;3.58;;;;;;;25.15;68.60;100932.44;6251370;28;20046;-91
2022/05/19 09:04:19;;;;;;;6.15;3.30;;;;;;;25.33;67.71;100934.44;6261443;28;20062;-90
2022/05/19 09:11:14;;;;;;;3.78;3.25;;;;;;;25.91;61.85;100922.19;6245540;28;20424;-91
2022/05/19 09:14:25;;;;;;;7.72;3.67;;;;;;;25.98;60.59;100921.13;6237841;28;20033;-90
2022/05/19 09:17:30;;;;;;;4.40;3.20;;;;;;;26.20;61.37;100913.63;6246570;28;20051;-90
2022/05/19 09:20:48;;;;;;;4.00;3.20;;;;;;;26.45;56.48;100912.03;6247206;28;20041;-90
2022/05/19 09:23:50;;;;;;;3.47;3.08;;;;;;;26.73;56.74;100906.28;6247226;28;20064;-91
2022/05/19 09:26:54;;;;;;;4.32;3.40;;;;;;;26.97;57.56;100916.06;6230757;28;20038;-90
2022/05/19 09:29:58;;;;;;;5.90;3.50;;;;;;;27.11;55.88;100913.28;6255983;28;20029;-91
2022/05/19 09:33:13;;;;;;;4.38;3.45;;;;;;;27.25;53.88;100920.94;6253506;28;20052;-91
2022/05/19 09:36:15;;;;;;;3.55;3.17;;;;;;;27.44;56.55;100927.03;6225001;28;20084;-91
2022/05/19 09:39:19;;;;;;;3.45;3.08;;;;;;;27.75;52.22;100929.72;6250732;28;20410;-91
2022/05/19 09:42:33;;;;;;;3.38;2.67;;;;;;;28.14;48.53;100923.03;6252442;28;20507;-90
2022/05/19 09:46:00;;;;;;;2.83;2.53;;;;;;;28.48;47.05;100913.53;6242477;28;20037;-91
2022/05/19 09:49:06;;;;;;;4.85;3.03;;;;;;;28.71;46.48;100909.25;6248944;28;20041;-90
2022/05/19 09:52:08;;;;;;;2.70;2.50;;;;;;;28.82;46.15;100911.09;6241809;28;20056;-91
2022/05/19 09:55:12;;;;;;;4.68;2.45;;;;;;;28.92;45.57;100900.66;6243358;28;20143;-91
2022/05/19 09:58:15;;;;;;;2.85;2.38;;;;;;;28.96;44.05;100895.66;6243984;28;20410;-91
2022/05/19 10:01:37;;;;;;;2.80;2.38;;;;;;;28.86;42.18;100890.91;6249723;28;20670;-89
2022/05/19 10:04:48;;;;;;;4.95;2.63;;;;;;;28.60;43.27;100892.22;6252153;28;20072;-89
2022/05/19 10:07:57;;;;;;;5.03;2.50;;;;;;;28.27;43.78;100876.75;6250196;28;20045;-89
2022/05/19 10:11:01;;;;;;;5.05;2.67;;;;;;;28.18;44.80;100876.31;6251202;28;20041;-89
2022/05/19 10:14:03;;;;;;;3.58;2.50;;;;;;;28.34;44.28;100885.44;6255890;28;20067;-89
2022/05/19 10:17:18;;;;;;;3.83;2.28;;;;;;;28.49;43.83;100874.38;6253994;28;20059;-89
2022/05/19 10:20:30;;;;;;;3.30;2.53;;;;;;;28.52;44.11;100877.41;6239984;28;20052;-88
2022/05/19 10:24:21;;;;;;;2.88;2.40;;;;;;;28.56;39.59;100875.88;6234169;28;20497;-89
2022/05/19 10:31:22;;;;;;;4.53;2.75;;;;;;;28.34;42.42;100864.97;6251158;28;20394;-83
2022/05/19 10:34:48;;;;;;;3.42;2.60;;;;;;;28.26;41.55;100861.84;6257207;28;20041;-89
2022/05/19 10:37:56;;;;;;;2.65;2.22;;;;;;;28.16;41.67;100859.75;6254214;28;20037;-89
2022/05/19 10:41:21;;;;;;;5.22;2.67;;;;;;;28.26;43.35;100856.50;6255980;28;20118;-89
2022/05/19 10:44:41;;;;;;;3.15;2.60;;;;;;;28.34;43.42;100848.19;6256112;28;20068;-93
2022/05/19 10:48:01;;;;;;;2.35;2.17;;;;;;;28.51;40.05;100853.66;6237867;28;20045;-89
2022/05/19 10:51:17;;;;;;;7.78;2.47;;;;;;;28.65;39.44;100851.56;6244920;28;20041;-90
2022/05/19 10:54:40;;;;;;;3.78;2.05;;;;;;;28.74;41.05;100837.63;6247472;28;20048;-90
2022/05/19 10:58:01;;;;;;;3.13;2.20;;;;;;;28.80;42.41;100821.78;6231071;28;20042;-89
2022/05/19 11:01:30;;;;;;;4.47;2.60;;;;;;;28.88;41.20;100821.41;6236944;28;20037;-89
2022/05/19 11:04:59;;;;;;;2.60;2.40;;;;;;;28.95;43.04;100820.22;6245546;28;20119;-89
2022/05/19 11:08:25;;;;;;;2.90;2.10;;;;;;;29.06;40.82;100809.78;6249432;28;20067;-90
2022/05/19 11:12:00;;;;;;;3.47;2.40;;;;;;;29.34;39.05;100795.63;6234371;28;20049;-89
2022/05/19 11:15:37;;;;;;;2.65;2.20;;;;;;;29.63;39.21;100796.41;6250989;28;20474;-89
2022/05/19 11:19:05;;;;;;;4.60;2.28;;;;;;;29.62;37.94;100782.28;6238089;28;20049;-89
2022/05/19 11:22:16;;;;;;;2.13;2.03;;;;;;;29.46;37.54;100784.91;6269643;28;20033;-89
2022/05/19 11:29:26;;;;;;;3.90;2.40;;;;;;;29.19;40.27;100783.69;6257120;28;20033;-88
2022/05/19 11:32:39;;;;;;;8.50;2.75;;;;;;;29.18;40.47;100779.38;6258989;28;20040;-89
2022/05/19 11:35:53;;;;;;;4.78;2.60;;;;;;;29.34;39.72;100766.31;6272956;28;20040;-89
2022/05/19 11:39:18;;;;;;;3.80;2.38;;;;;;;29.53;38.61;100761.56;6268512;28;20037;-89
2022/05/19 11:42:45;;;;;;;4.40;2.35;;;;;;;29.72;41.81;100752.31;6251505;28;20044;-89
2022/05/19 11:46:03;;;;;;;4.93;2.47;;;;;;;29.97;41.78;100746.56;6248802;28;20155;-89
2022/05/19 11:56:31;;;;;;;5.90;2.25;;;;;;;30.26;41.51;100723.22;6262844;28;20124;-89
2022/05/19 11:59:33;;;;;;;4.72;2.78;;;;;;;30.26;41.52;100720.56;6270201;28;20049;-88
2022/05/19 12:02:47;;;;;;;3.17;2.70;;;;;;;30.18;40.27;100720.13;6265506;28;20507;-89
2022/05/19 12:06:00;;;;;;;3.40;2.60;;;;;;;30.02;39.67;100713.78;6252000;28;20048;-88
2022/05/19 12:09:39;;;;;;;4.72;3.05;;;;;;;30.14;41.90;100719.03;6230223;28;20041;-88
2022/05/19 12:12:49;;;;;;;3.60;2.63;;;;;;;30.26;43.76;100714.38;6254786;28;20037;-88
2022/05/19 12:15:57;;;;;;;3.20;2.90;;;;;;;30.41;43.39;100725.28;6263570;28;20094;-88
2022/05/19 12:19:08;;;;;;;3.90;3.17;;;;;;;30.47;41.65;100718.13;6273626;28;20123;-88
2022/05/19 12:22:17;;;;;;;3.42;2.60;;;;;;;30.65;45.10;100711.66;6259281;28;20904;-88
2022/05/19 12:25:32;;;;;;;4.20;2.97;;;;;;;30.83;42.16;100710.53;6257194;28;20088;-89
2022/05/19 12:29:23;;;;;;;4.28;2.85;;;;;;;31.04;42.87;100706.22;6267828;28;20120;-89
2022/05/19 12:32:35;;;;;;;3.15;2.70;;;;;;;31.17;42.43;100713.00;6245261;28;20045;-89
2022/05/19 12:35:51;;;;;;;5.97;3.03;;;;;;;31.28;42.25;100717.38;6271534;28;20413;-90
2022/05/19 12:39:18;;;;;;;3.20;2.90;;;;;;;31.17;40.18;100711.13;6258425;28;20477;-89
2022/05/19 12:42:43;;;;;;;4.47;2.95;;;;;;;30.67;40.71;100702.31;6245715;28;20054;-87
2022/05/19 12:45:57;;;;;;;3.30;3.00;;;;;;;30.10;40.06;100702.66;6265923;28;20370;-88
2022/05/19 12:49:28;;;;;;;6.75;3.85;;;;;;;29.99;45.49;100699.06;6246196;28;20072;-88
2022/05/19 12:52:54;;;;;;;4.32;2.67;;;;;;;30.74;43.84;100698.66;6265784;28;20322;-89
2022/05/19 12:55:58;;;;;;;4.47;3.10;;;;;;;31.37;42.11;100690.97;6256800;28;20117;-89
2022/05/19 12:59:04;;;;;;;7.25;3.25;;;;;;;31.72;43.82;100685.09;6263232;28;20156;-88
2022/05/19 13:02:41;;;;;;;3.65;2.72;;;;;;;31.73;39.99;100679.50;6243479;28;20114;-88
2022/05/19 13:05:59;;;;;;;3.78;3.15;;;;;;;31.66;40.19;100675.44;6245544;28;20378;-89
2022/05/19 13:09:08;;;;;;;3.85;2.90;;;;;;;31.92;40.53;100671.00;6266248;28;20037;-89
2022/05/19 13:12:20;;;;;;;3.55;2.92;;;;;;;32.12;39.24;100673.00;6241673;28;20083;-89
2022/05/19 13:15:28;;;;;;;3.45;2.70;;;;;;;32.23;40.23;100661.28;6268782;28;20218;-89
2022/05/19 13:18:39;;;;;;;4.45;2.95;;;;;;;32.46;39.70;100662.69;6272387;28;20047;-90
2022/05/19 13:22:08;;;;;;;3.55;3.13;;;;;;;32.52;39.39;100663.53;6270710;28;20043;-90
2022/05/19 13:25:12;;;;;;;3.90;3.00;;;;;;;32.69;39.87;100656.06;6272102;28;20032;-89
2022/05/19 13:32:02;;;;;;;5.35;2.58;;;;;;;33.35;37.70;100657.19;6258701;28;20448;-89
2022/05/19 13:35:17;;;;;;;4.03;2.70;;;;;;;33.37;36.90;100639.75;6244691;28;20065;-90
2022/05/19 13:38:23;;;;;;;2.83;2.55;;;;;;;33.23;38.19;100636.81;6261334;28;20045;-89
2022/05/19 13:41:26;;;;;;;5.10;2.80;;;;;;;33.11;39.14;100641.63;6261211;28;21295;-89
2022/05/19 13:44:39;;;;;;;4.75;2.90;;;;;;;32.92;37.46;100645.91;6259238;28;20280;-89
2022/05/19 13:47:41;;;;;;;3.13;2.83;;;;;;;32.42;38.55;100647.41;6245374;28;20040;-90
2022/05/19 13:50:44;;;;;;;5.10;2.80;;;;;;;32.06;38.69;100636.56;6271883;28;20049;-89
2022/05/19 13:53:53;;;;;;;3.83;2.63;;;;;;;31.66;41.30;100643.31;6245506;28;20479;-89
2022/05/19 13:57:06;;;;;;;3.38;2.85;;;;;;;31.67;40.40;100636.88;6255799;28;20041;-89
2022/05/19 14:00:12;;;;;;;4.20;3.80;;;;;;;32.09;41.69;100631.50;6250027;28;20521;-89
2022/05/19 14:03:18;;;;;;;3.40;2.65;;;;;;;32.47;39.85;100626.81;6255423;28;20180;-91
2022/05/19 14:06:23;;;;;;;3.63;2.78;;;;;;;32.30;39.83;100621.66;6261766;28;20044;-91
2022/05/19 14:09:46;;;;;;;6.57;2.85;;;;;;;32.33;39.49;100609.59;6257101;28;20048;-91
2022/05/19 14:12:57;;;;;;;3.85;2.83;;;;;;;32.23;40.97;100615.75;6282456;28;20041;-91
2022/05/19 14:16:07;;;;;;;3.47;3.00;;;;;;;32.62;37.25;100620.66;6257147;28;20056;-91
2022/05/19 14:19:37;;;;;;;4.47;3.08;;;;;;;32.39;37.41;100629.97;6239130;28;20190;-90
2022/05/19 14:22:39;;;;;;;2.97;2.47;;;;;;;31.79;39.90;100628.66;6269679;28;20106;-88
2022/05/19 14:25:42;;;;;;;4.50;3.00;;;;;;;31.28;41.17;100637.13;6227457;28;20390;-90
2022/05/19 14:28:47;;;;;;;4.53;3.00;;;;;;;30.84;43.66;100640.00;6261964;28;20049;-89
2022/05/19 14:31:56;;;;;;;4.78;2.80;;;;;;;30.39;42.47;100631.22;6263109;28;20056;-89
2022/05/19 14:35:18;;;;;;;3.50;2.83;;;;;;;30.13;44.17;100639.97;6248895;28;20120;-89
2022/05/19 14:38:58;;;;;;;4.55;2.70;;;;;;;30.10;45.15;100637.78;6250990;28;20501;-89
2022/05/19 14:45:24;;;;;;;5.93;3.03;;;;;;;29.79;45.07;100616.06;6250617;28;20498;-89
2022/05/19 14:48:33;;;;;;;5.18;2.92;;;;;;;29.54;46.49;100609.28;6250607;28;20446;-89
2022/05/19 14:51:39;;;;;;;3.63;2.70;;;;;;;29.18;46.44;100600.72;6234971;28;20052;-88
2022/05/19 14:54:42;;;;;;;3.28;2.92;;;;;;;28.75;46.02;100599.47;6259227;28;20501;-89
2022/05/19 14:57:45;;;;;;;5.13;2.95;;;;;;;28.33;48.45;100615.72;6255691;28;20043;-89
2022/05/19 15:00:46;;;;;;;4.75;2.90;;;;;;;27.84;49.05;100625.09;6251538;28;20131;-88
2022/05/19 15:03:49;;;;;;;3.38;2.92;;;;;;;27.48;51.48;100630.38;6248322;28;20066;-88
2022/05/19 15:06:50;;;;;;;4.93;3.15;;;;;;;27.22;53.70;100626.31;6236481;28;20094;-87